createdAt,value
2022-11-13T00:00:20.328Z,14
2022-11-13T00:10:20.561Z,14
2022-11-13T00:20:20.345Z,13.5
2022-11-13T00:30:20.555Z,13.5
2022-11-13T00:40:20.351Z,13.5
2022-11-13T00:50:20.541Z,13.5
2022-11-13T01:00:20.313Z,13.5
2022-11-13T01:10:20.562Z,13.5
2022-11-13T01:20:20.314Z,13.5
2022-11-13T01:30:20.607Z,13.5
2022-11-13T01:40:20.541Z,13.5
2022-11-13T01:50:20.521Z,13.5
2022-11-13T02:00:20.520Z,13.5
2022-11-13T02:10:20.532Z,13.5
2022-11-13T02:20:20.546Z,13.5
2022-11-13T02:30:23.850Z,12.5
2022-11-13T02:40:20.572Z,12.5
2022-11-13T02:50:20.570Z,12.5
2022-11-13T03:00:20.593Z,12.5
2022-11-13T03:10:20.570Z,12.5
2022-11-13T03:20:20.568Z,12.5
2022-11-13T03:30:20.587Z,12.5
2022-11-13T03:40:20.572Z,12.5
2022-11-13T03:50:20.571Z,13
2022-11-13T04:00:20.558Z,13
2022-11-13T04:10:20.776Z,13
2022-11-13T04:20:20.565Z,13
2022-11-13T04:30:20.784Z,13
2022-11-13T04:40:20.540Z,13
2022-11-13T04:50:20.771Z,13
2022-11-13T05:00:20.549Z,13
2022-11-13T05:10:20.761Z,13
2022-11-13T05:20:20.561Z,13
2022-11-13T05:30:20.771Z,13
2022-11-13T05:40:20.579Z,13
2022-11-13T05:50:20.768Z,13
2022-11-13T06:00:20.761Z,13
2022-11-13T06:10:20.843Z,13
2022-11-13T06:20:20.793Z,13
2022-11-13T06:30:20.793Z,13
2022-11-13T06:40:20.780Z,13
2022-11-13T06:50:20.819Z,13
2022-11-13T07:00:20.761Z,13
2022-11-13T07:10:20.794Z,13
2022-11-13T07:20:20.784Z,12.5
2022-11-13T07:30:20.800Z,13
2022-11-13T07:40:20.783Z,13
2022-11-13T07:50:21.009Z,13
2022-11-13T08:00:20.773Z,13
2022-11-13T08:10:21.005Z,13
2022-11-13T08:20:20.803Z,13
2022-11-13T08:30:21.035Z,13
2022-11-13T08:40:20.816Z,13
2022-11-13T08:50:21.034Z,13
2022-11-13T09:00:20.847Z,13
2022-11-13T09:10:21.070Z,13
2022-11-13T09:20:22.871Z,13
2022-11-13T09:30:21.035Z,14
2022-11-13T09:40:20.848Z,14
2022-11-13T09:50:21.140Z,14
2022-11-13T10:00:20.920Z,14
2022-11-13T10:10:21.189Z,14
2022-11-13T10:20:21.069Z,14.5
2022-11-13T10:30:21.102Z,15
2022-11-13T10:40:21.283Z,14.5
2022-11-13T10:50:21.080Z,15
2022-11-13T11:00:21.068Z,14.5
2022-11-13T11:10:21.112Z,15
2022-11-13T11:30:21.100Z,14
2022-11-13T11:50:21.059Z,15
2022-11-13T12:00:21.041Z,14.5
2022-11-13T12:10:21.264Z,14.5
2022-11-13T12:20:21.039Z,15
2022-11-13T12:30:21.250Z,15
2022-11-13T12:40:21.061Z,15
2022-11-13T12:50:21.279Z,15
2022-11-13T13:00:21.053Z,15
2022-11-13T13:10:21.268Z,15.5
2022-11-13T13:20:21.037Z,15.5
2022-11-13T13:30:21.354Z,15.5
2022-11-13T13:40:21.129Z,16
2022-11-13T13:50:21.339Z,16
2022-11-13T14:00:21.157Z,16
2022-11-13T14:10:21.365Z,16
2022-11-13T14:20:21.113Z,16
2022-11-13T14:30:21.320Z,16
2022-11-13T14:40:21.353Z,16
2022-11-13T14:50:21.319Z,15.5
2022-11-13T15:00:22.409Z,15.5
2022-11-13T15:10:21.226Z,15.5
2022-11-13T15:20:21.296Z,15.5
2022-11-13T15:30:21.305Z,15.5
2022-11-13T15:40:21.338Z,15.5
2022-11-13T15:50:21.337Z,15.5
2022-11-13T16:00:21.354Z,14.5
2022-11-13T16:10:21.509Z,14.5
2022-11-13T16:20:21.275Z,14.5
2022-11-13T16:30:21.517Z,14.5
2022-11-13T16:40:21.279Z,14.5
2022-11-13T16:50:22.155Z,14.5
2022-11-13T17:00:21.300Z,13.5
2022-11-13T17:10:36.826Z,13.5
2022-11-13T17:20:21.274Z,13.5
2022-11-13T17:30:21.481Z,13.5
2022-11-13T17:40:21.472Z,13.5
2022-11-13T17:50:21.477Z,13.5
2022-11-13T18:00:21.451Z,13.5
2022-11-13T18:10:21.492Z,13.5
2022-11-13T18:20:21.481Z,13.5
2022-11-13T18:30:21.506Z,13.5
2022-11-13T18:40:21.441Z,13.5
2022-11-13T18:50:21.517Z,13.5
2022-11-13T19:00:21.467Z,13.5
2022-11-13T19:10:21.684Z,13.5
2022-11-13T19:20:21.458Z,13.5
2022-11-13T19:30:21.691Z,13.5
2022-11-13T19:40:21.455Z,13.5
2022-11-13T19:50:21.736Z,13
2022-11-13T20:00:21.449Z,12.5
2022-11-13T20:10:21.668Z,12.5
2022-11-13T20:20:21.459Z,12.5
2022-11-13T20:30:21.681Z,12.5
2022-11-13T20:40:21.655Z,12.5
2022-11-13T20:50:21.671Z,12.5
2022-11-13T21:00:21.655Z,12.5
2022-11-13T21:10:21.697Z,12
2022-11-13T21:20:21.637Z,11.5
2022-11-13T21:30:21.663Z,11.5
2022-11-13T21:40:21.637Z,11.5
2022-11-13T21:50:21.647Z,11.5
2022-11-13T22:00:21.642Z,12
2022-11-13T22:10:21.859Z,11.5
2022-11-13T22:20:21.695Z,11.5
2022-11-13T22:30:21.943Z,11.5
2022-11-13T22:40:21.655Z,11.5
2022-11-13T22:50:21.875Z,11.5
2022-11-13T23:00:21.647Z,11.5
2022-11-13T23:10:21.858Z,11.5
2022-11-13T23:20:21.624Z,11.5
2022-11-13T23:30:21.836Z,11.5
2022-11-13T23:40:21.888Z,11.5
2022-11-13T23:50:21.828Z,11.5
